Time;durP1;ratioP1;P1;durP2;ratioP2;P2;SDS_P1;SDS_P2;PMS_P1;PMS_P2;Temp;Humidity;BMP_temperature;BMP_pressure;BME280_temperature;BME280_humidity;BME280_pressure;Samples;Min_cycle;Max_cycle;Signal;HPM_P1;HPM_P2
2022/10/24 00:01:11;;;;;;;9.80;4.18;;;;;;;;;;2597328;53;21033;-84
2022/10/24 00:03:38;;;;;;;6.28;3.60;;;;;;;;;;2597995;53;21181;-84
2022/10/24 00:06:06;;;;;;;9.52;3.30;;;;;;;;;;2597313;53;21033;-84
2022/10/24 00:08:33;;;;;;;5.65;3.10;;;;;;;;;;2598376;53;21133;-84
2022/10/24 00:11:00;;;;;;;6.72;3.45;;;;;;;;;;2598064;53;21050;-85
2022/10/24 00:13:27;;;;;;;6.32;3.33;;;;;;;;;;2598222;53;21096;-84
2022/10/24 00:15:54;;;;;;;8.13;3.58;;;;;;;;;;2350337;57;21093;-83
2022/10/24 00:18:21;;;;;;;7.70;3.00;;;;;;;;;;2597927;53;21065;-84
2022/10/24 00:20:48;;;;;;;9.65;3.72;;;;;;;;;;2597310;53;21077;-84
2022/10/24 00:23:15;;;;;;;6.15;3.03;;;;;;;;;;2349209;57;21089;-86
2022/10/24 00:25:42;;;;;;;4.53;2.90;;;;;;;;;;2597626;53;21140;-85
2022/10/24 00:28:09;;;;;;;8.20;2.80;;;;;;;;;;2597777;53;21066;-84
2022/10/24 00:30:36;;;;;;;3.35;2.70;;;;;;;;;;2350161;57;21045;-84
2022/10/24 00:33:03;;;;;;;3.65;2.87;;;;;;;;;;2349445;57;21093;-84
2022/10/24 00:35:30;;;;;;;5.03;2.72;;;;;;;;;;2597122;52;21045;-85
2022/10/24 00:37:57;;;;;;;7.30;3.47;;;;;;;;;;2349796;57;21053;-84
2022/10/24 00:40:24;;;;;;;5.97;2.85;;;;;;;;;;2349944;57;21597;-83
2022/10/24 00:42:51;;;;;;;5.70;2.83;;;;;;;;;;2597330;53;21435;-84
2022/10/24 00:45:36;;;;;;;5.60;2.80;;;;;;;;;;2349991;57;21049;-85
2022/10/24 00:48:09;;;;;;;4.30;2.90;;;;;;;;;;2350186;57;21041;-85
2022/10/24 00:50:36;;;;;;;5.65;2.65;;;;;;;;;;2349304;57;21049;-83
2022/10/24 00:53:03;;;;;;;4.05;2.65;;;;;;;;;;2596223;53;21104;-83
2022/10/24 00:55:30;;;;;;;5.93;2.80;;;;;;;;;;2593763;53;21120;-85
2022/10/24 00:58:00;;;;;;;4.25;2.83;;;;;;;;;;2595034;53;21041;-84
2022/10/24 01:00:28;;;;;;;3.08;2.20;;;;;;;;;;2596706;53;21133;-84
2022/10/24 01:02:56;;;;;;;8.60;3.20;;;;;;;;;;2595996;53;21137;-84
2022/10/24 01:05:26;;;;;;;3.50;2.67;;;;;;;;;;2349428;57;21112;-84
2022/10/24 01:07:58;;;;;;;5.87;2.78;;;;;;;;;;2349544;57;21057;-84
2022/10/24 01:10:30;;;;;;;3.78;2.53;;;;;;;;;;2598186;53;21053;-84
2022/10/24 01:13:02;;;;;;;3.93;2.70;;;;;;;;;;2597468;53;21121;-84
2022/10/24 01:15:33;;;;;;;4.32;2.55;;;;;;;;;;2597942;53;21557;-84
2022/10/24 01:18:02;;;;;;;5.65;3.45;;;;;;;;;;2597281;53;21104;-85
2022/10/24 01:20:46;;;;;;;3.22;2.35;;;;;;;;;;2597448;52;21050;-84
2022/10/24 01:23:20;;;;;;;4.53;3.10;;;;;;;;;;2597941;53;21057;-84
2022/10/24 01:25:53;;;;;;;12.07;3.85;;;;;;;;;;2598581;53;21050;-85
2022/10/24 01:28:22;;;;;;;6.30;2.72;;;;;;;;;;2351321;57;21049;-86
2022/10/24 01:30:50;;;;;;;5.82;2.70;;;;;;;;;;2350449;57;21128;-84
2022/10/24 01:33:22;;;;;;;2.72;2.05;;;;;;;;;;2597989;53;21045;-85
2022/10/24 01:35:52;;;;;;;5.37;2.67;;;;;;;;;;2598076;53;21033;-84
2022/10/24 01:38:24;;;;;;;11.75;2.53;;;;;;;;;;2596052;53;21119;-85
2022/10/24 01:40:53;;;;;;;6.68;2.33;;;;;;;;;;2350569;57;21053;-84
2022/10/24 01:43:22;;;;;;;7.12;2.97;;;;;;;;;;2350406;57;21527;-85
2022/10/24 01:45:51;;;;;;;4.10;2.30;;;;;;;;;;2598330;53;21121;-85
2022/10/24 01:48:21;;;;;;;7.32;2.20;;;;;;;;;;2350909;57;21046;-85
2022/10/24 01:50:49;;;;;;;2.78;2.20;;;;;;;;;;2597728;53;21057;-85
2022/10/24 01:53:16;;;;;;;3.87;2.20;;;;;;;;;;2350103;57;21067;-85
2022/10/24 01:55:44;;;;;;;3.90;3.08;;;;;;;;;;2596347;53;21057;-85
2022/10/24 01:58:11;;;;;;;8.90;2.55;;;;;;;;;;2597075;53;21030;-85
2022/10/24 02:00:38;;;;;;;4.32;2.45;;;;;;;;;;2349961;57;21167;-84
2022/10/24 02:03:09;;;;;;;7.18;2.65;;;;;;;;;;2349530;57;21041;-85
2022/10/24 02:05:39;;;;;;;5.70;2.55;;;;;;;;;;2350117;57;21160;-84
2022/10/24 02:08:08;;;;;;;3.03;2.35;;;;;;;;;;2598167;53;21137;-85
2022/10/24 02:10:37;;;;;;;6.55;2.50;;;;;;;;;;2349759;57;21073;-85
2022/10/24 02:13:06;;;;;;;3.55;2.30;;;;;;;;;;2596649;53;21045;-85
2022/10/24 02:15:36;;;;;;;4.65;2.10;;;;;;;;;;2596863;52;21061;-85
2022/10/24 02:18:03;;;;;;;2.80;2.05;;;;;;;;;;2597853;53;21137;-85
2022/10/24 02:20:33;;;;;;;3.60;2.50;;;;;;;;;;2597124;53;21053;-85
2022/10/24 02:23:05;;;;;;;4.37;2.62;;;;;;;;;;2350073;57;21620;-85
2022/10/24 02:25:34;;;;;;;4.25;2.55;;;;;;;;;;2597489;53;21081;-84
2022/10/24 02:28:04;;;;;;;5.53;3.00;;;;;;;;;;2598101;53;21107;-85
2022/10/24 02:30:34;;;;;;;3.25;2.53;;;;;;;;;;2596672;53;21049;-85
2022/10/24 02:33:01;;;;;;;4.30;2.28;;;;;;;;;;2597557;53;21112;-85
2022/10/24 02:35:29;;;;;;;3.83;3.00;;;;;;;;;;2597876;53;21045;-85
2022/10/24 02:37:59;;;;;;;2.75;2.37;;;;;;;;;;2596834;53;21045;-84
2022/10/24 02:40:26;;;;;;;5.90;2.33;;;;;;;;;;2597273;53;21160;-84
2022/10/24 02:42:57;;;;;;;6.30;3.05;;;;;;;;;;2349847;57;21068;-85
2022/10/24 02:45:24;;;;;;;3.70;2.33;;;;;;;;;;2350579;57;21057;-84
2022/10/24 02:47:55;;;;;;;3.08;2.33;;;;;;;;;;2350084;57;21132;-84
2022/10/24 02:50:22;;;;;;;4.60;2.22;;;;;;;;;;2597339;53;21148;-84
2022/10/24 02:52:49;;;;;;;3.05;2.30;;;;;;;;;;2596878;53;21081;-86
2022/10/24 02:55:16;;;;;;;3.17;2.40;;;;;;;;;;2596768;53;21073;-85
2022/10/24 02:57:43;;;;;;;3.50;2.42;;;;;;;;;;2598339;53;21088;-84
2022/10/24 03:00:11;;;;;;;3.47;2.40;;;;;;;;;;2598585;53;21057;-85
2022/10/24 03:02:38;;;;;;;7.30;2.95;;;;;;;;;;2597350;53;21100;-85
2022/10/24 03:05:06;;;;;;;3.58;2.53;;;;;;;;;;2598619;53;21260;-84
2022/10/24 03:07:33;;;;;;;2.75;2.45;;;;;;;;;;2350963;57;21700;-85
2022/10/24 03:10:00;;;;;;;3.87;2.40;;;;;;;;;;2349962;57;21045;-84
2022/10/24 03:12:27;;;;;;;4.18;2.42;;;;;;;;;;2350474;57;21144;-84
2022/10/24 03:14:54;;;;;;;4.07;2.37;;;;;;;;;;2598669;53;21073;-85
2022/10/24 03:17:22;;;;;;;4.90;3.00;;;;;;;;;;2350684;57;21319;-85
2022/10/24 03:19:49;;;;;;;3.22;2.20;;;;;;;;;;2598334;53;21104;-84
2022/10/24 03:22:16;;;;;;;4.53;2.40;;;;;;;;;;2350109;57;21049;-83
2022/10/24 03:24:43;;;;;;;6.68;2.80;;;;;;;;;;2598697;52;21144;-84
2022/10/24 03:27:10;;;;;;;5.28;2.62;;;;;;;;;;2597189;53;21565;-85
2022/10/24 03:29:37;;;;;;;3.67;2.58;;;;;;;;;;2598341;53;21053;-84
2022/10/24 03:32:05;;;;;;;4.50;2.60;;;;;;;;;;2598494;53;21057;-85
2022/10/24 03:34:32;;;;;;;4.47;2.60;;;;;;;;;;2350617;57;21102;-85
2022/10/24 03:36:59;;;;;;;6.90;2.92;;;;;;;;;;2597900;53;21033;-84
2022/10/24 03:39:26;;;;;;;4.12;2.62;;;;;;;;;;2598509;53;21124;-84
2022/10/24 03:41:53;;;;;;;4.75;2.90;;;;;;;;;;2598569;52;21124;-84
2022/10/24 03:44:20;;;;;;;4.87;2.80;;;;;;;;;;2596542;53;21033;-84
2022/10/24 03:46:47;;;;;;;4.97;3.00;;;;;;;;;;2348625;57;21061;-85
2022/10/24 03:49:14;;;;;;;3.45;2.55;;;;;;;;;;2595996;53;21085;-84
2022/10/24 03:51:41;;;;;;;5.05;2.58;;;;;;;;;;2597347;52;21085;-86
2022/10/24 03:54:09;;;;;;;4.93;3.28;;;;;;;;;;2350000;57;21065;-84
2022/10/24 03:56:37;;;;;;;7.25;2.37;;;;;;;;;;2597065;53;21053;-85
2022/10/24 03:59:04;;;;;;;6.53;3.12;;;;;;;;;;2598612;53;21041;-84
2022/10/24 04:01:31;;;;;;;4.07;2.60;;;;;;;;;;2350487;57;21077;-84
2022/10/24 04:03:58;;;;;;;6.35;3.08;;;;;;;;;;2350131;57;21049;-85
2022/10/24 04:06:24;;;;;;;5.85;2.60;;;;;;;;;;2350076;57;21041;-85
2022/10/24 04:08:51;;;;;;;8.00;3.08;;;;;;;;;;2349472;57;21077;-85
2022/10/24 04:11:18;;;;;;;7.25;3.17;;;;;;;;;;2351095;57;21104;-85
2022/10/24 04:13:45;;;;;;;9.73;2.83;;;;;;;;;;2596534;53;21057;-85
2022/10/24 04:16:12;;;;;;;5.72;2.97;;;;;;;;;;2350878;57;21402;-86
2022/10/24 04:18:39;;;;;;;3.92;2.75;;;;;;;;;;2597178;53;21120;-86
2022/10/24 04:21:06;;;;;;;8.23;2.87;;;;;;;;;;2599375;53;21029;-87
2022/10/24 04:23:39;;;;;;;4.40;2.83;;;;;;;;;;2597277;53;21132;-85
2022/10/24 04:26:06;;;;;;;6.43;2.90;;;;;;;;;;2350432;57;21116;-84
2022/10/24 04:28:33;;;;;;;7.68;3.15;;;;;;;;;;2596486;53;21120;-86
2022/10/24 04:31:00;;;;;;;7.43;3.40;;;;;;;;;;2348598;57;21045;-85
2022/10/24 04:33:27;;;;;;;7.12;2.97;;;;;;;;;;2348743;57;21061;-83
2022/10/24 04:35:54;;;;;;;5.05;2.97;;;;;;;;;;2596297;53;21541;-85
2022/10/24 04:38:21;;;;;;;11.70;3.15;;;;;;;;;;2349673;57;21088;-85
2022/10/24 04:40:49;;;;;;;6.05;3.08;;;;;;;;;;2350097;57;21092;-85
2022/10/24 04:43:16;;;;;;;4.75;2.92;;;;;;;;;;2596726;53;21128;-85
2022/10/24 04:45:43;;;;;;;4.60;2.80;;;;;;;;;;2350541;57;21057;-85
2022/10/24 04:48:10;;;;;;;3.62;2.75;;;;;;;;;;2350737;57;21092;-86
2022/10/24 04:50:39;;;;;;;3.58;2.58;;;;;;;;;;2351168;57;21085;-85
2022/10/24 04:53:06;;;;;;;5.70;2.92;;;;;;;;;;2597229;53;21037;-85
2022/10/24 04:55:33;;;;;;;4.95;2.70;;;;;;;;;;2350245;57;21065;-86
2022/10/24 04:58:00;;;;;;;9.35;3.17;;;;;;;;;;2350251;57;21076;-85
2022/10/24 05:00:27;;;;;;;8.25;3.58;;;;;;;;;;2595946;52;21025;-85
2022/10/24 05:02:54;;;;;;;4.25;2.87;;;;;;;;;;2350373;57;21053;-85
2022/10/24 05:05:21;;;;;;;5.65;3.33;;;;;;;;;;2350535;57;21113;-84
2022/10/24 05:07:48;;;;;;;6.57;3.60;;;;;;;;;;2597246;53;21120;-84
2022/10/24 05:10:16;;;;;;;8.25;3.60;;;;;;;;;;2596673;53;21160;-85
2022/10/24 05:12:49;;;;;;;7.93;3.50;;;;;;;;;;2349442;57;21076;-85
2022/10/24 05:15:17;;;;;;;5.80;3.37;;;;;;;;;;2350024;57;21746;-84
2022/10/24 05:17:44;;;;;;;5.35;3.00;;;;;;;;;;2349571;57;21124;-85
2022/10/24 05:20:12;;;;;;;4.65;3.00;;;;;;;;;;2596784;53;21109;-85
2022/10/24 05:22:39;;;;;;;4.10;3.28;;;;;;;;;;2596842;53;21085;-84
2022/10/24 05:25:07;;;;;;;8.05;3.20;;;;;;;;;;2597587;53;21109;-85
2022/10/24 05:27:34;;;;;;;5.43;2.92;;;;;;;;;;2350173;57;21101;-85
2022/10/24 05:30:01;;;;;;;9.90;3.00;;;;;;;;;;2349374;57;21057;-85
2022/10/24 05:32:28;;;;;;;8.02;4.28;;;;;;;;;;2595257;53;21112;-84
2022/10/24 05:34:55;;;;;;;7.75;3.42;;;;;;;;;;2596761;53;21049;-85
2022/10/24 05:37:22;;;;;;;6.53;3.67;;;;;;;;;;2597060;53;21597;-84
2022/10/24 05:39:49;;;;;;;7.10;2.92;;;;;;;;;;2349830;57;21088;-84
2022/10/24 05:42:17;;;;;;;8.10;3.45;;;;;;;;;;2350158;57;21073;-85
2022/10/24 05:44:44;;;;;;;6.97;2.97;;;;;;;;;;2350060;57;21065;-85
2022/10/24 05:47:11;;;;;;;4.93;3.15;;;;;;;;;;2349857;57;21137;-84
2022/10/24 05:49:38;;;;;;;8.52;3.40;;;;;;;;;;2350055;57;21358;-84
2022/10/24 05:52:05;;;;;;;5.53;2.97;;;;;;;;;;2595353;53;21073;-85
2022/10/24 05:54:32;;;;;;;4.45;2.97;;;;;;;;;;2349604;57;21029;-85
2022/10/24 05:56:59;;;;;;;10.20;3.95;;;;;;;;;;2349708;57;21025;-85
2022/10/24 05:59:26;;;;;;;5.78;3.08;;;;;;;;;;2349263;57;21053;-84
2022/10/24 06:01:53;;;;;;;8.32;3.42;;;;;;;;;;2348896;57;21101;-84
2022/10/24 06:04:20;;;;;;;9.40;3.37;;;;;;;;;;2348769;57;21049;-85
2022/10/24 06:06:46;;;;;;;8.35;3.25;;;;;;;;;;2349497;57;21109;-85
2022/10/24 06:09:13;;;;;;;7.20;3.60;;;;;;;;;;2349665;57;21077;-85
2022/10/24 06:11:41;;;;;;;8.20;2.85;;;;;;;;;;2596014;53;21030;-84
2022/10/24 06:14:08;;;;;;;6.65;3.22;;;;;;;;;;2596508;53;21045;-86
2022/10/24 06:16:36;;;;;;;9.38;3.28;;;;;;;;;;2349705;57;21132;-84
2022/10/24 06:19:03;;;;;;;8.02;3.58;;;;;;;;;;2596314;53;21045;-84
2022/10/24 06:21:30;;;;;;;8.82;3.47;;;;;;;;;;2348875;57;21104;-85
2022/10/24 06:23:57;;;;;;;6.10;3.25;;;;;;;;;;2349239;57;21533;-85
2022/10/24 06:26:24;;;;;;;7.37;3.42;;;;;;;;;;2349748;57;21034;-85
2022/10/24 06:28:51;;;;;;;10.63;3.10;;;;;;;;;;2349570;57;21097;-85
2022/10/24 06:31:19;;;;;;;6.90;3.45;;;;;;;;;;2349562;57;21049;-85
2022/10/24 06:33:46;;;;;;;11.27;3.00;;;;;;;;;;2349230;57;21092;-84
2022/10/24 06:36:13;;;;;;;6.22;3.25;;;;;;;;;;2596644;53;21053;-84
2022/10/24 06:38:40;;;;;;;4.65;3.10;;;;;;;;;;2348681;57;21038;-84
2022/10/24 06:41:08;;;;;;;12.05;3.42;;;;;;;;;;2595976;53;21391;-85
2022/10/24 06:43:35;;;;;;;7.72;3.28;;;;;;;;;;2595725;53;21081;-84
2022/10/24 06:46:05;;;;;;;8.05;3.40;;;;;;;;;;2349317;57;21033;-85
2022/10/24 06:48:33;;;;;;;7.80;3.87;;;;;;;;;;2596208;53;21140;-85
2022/10/24 06:50:59;;;;;;;7.37;3.37;;;;;;;;;;2595723;53;21191;-85
2022/10/24 06:53:26;;;;;;;5.78;3.20;;;;;;;;;;2349899;57;21132;-85
2022/10/24 06:55:53;;;;;;;5.20;3.22;;;;;;;;;;2593907;53;21156;-86
2022/10/24 06:58:20;;;;;;;6.65;3.30;;;;;;;;;;2596053;53;21053;-86
2022/10/24 07:00:49;;;;;;;8.20;3.25;;;;;;;;;;2594597;53;21113;-85
2022/10/24 07:03:16;;;;;;;5.82;3.10;;;;;;;;;;2594534;53;21037;-86
2022/10/24 07:05:46;;;;;;;7.20;3.35;;;;;;;;;;2591394;53;21080;-85
2022/10/24 07:08:13;;;;;;;8.77;3.70;;;;;;;;;;2348174;57;21113;-85
2022/10/24 07:10:40;;;;;;;8.20;3.22;;;;;;;;;;2594112;53;21542;-85
2022/10/24 07:13:07;;;;;;;6.07;3.10;;;;;;;;;;2596583;53;21113;-86
2022/10/24 07:15:34;;;;;;;8.38;2.97;;;;;;;;;;2350082;57;21053;-85
2022/10/24 07:18:01;;;;;;;7.55;3.55;;;;;;;;;;2348022;57;21033;-85
2022/10/24 07:20:28;;;;;;;9.70;3.70;;;;;;;;;;2347570;57;21053;-86
2022/10/24 07:22:55;;;;;;;9.02;3.60;;;;;;;;;;2346690;57;21112;-84
2022/10/24 07:25:22;;;;;;;9.18;3.58;;;;;;;;;;2348954;57;21334;-86
2022/10/24 07:27:51;;;;;;;7.70;3.22;;;;;;;;;;2349394;57;21589;-85
2022/10/24 07:30:18;;;;;;;6.45;3.50;;;;;;;;;;2348623;57;21061;-85
2022/10/24 07:32:45;;;;;;;8.27;3.50;;;;;;;;;;2596451;53;21522;-86
2022/10/24 07:35:12;;;;;;;8.32;3.40;;;;;;;;;;2596255;53;21057;-85
2022/10/24 07:37:39;;;;;;;9.85;3.33;;;;;;;;;;2347929;57;21609;-85
2022/10/24 07:40:10;;;;;;;7.78;3.47;;;;;;;;;;2347923;57;21046;-86
2022/10/24 07:42:37;;;;;;;8.18;3.40;;;;;;;;;;2349464;57;21561;-86
2022/10/24 07:45:06;;;;;;;6.65;3.30;;;;;;;;;;2595275;52;21521;-86
2022/10/24 07:47:33;;;;;;;7.18;3.37;;;;;;;;;;2348638;57;21089;-87
2022/10/24 07:50:00;;;;;;;7.20;3.45;;;;;;;;;;2595163;53;21099;-86
2022/10/24 07:52:27;;;;;;;4.68;3.08;;;;;;;;;;2348315;57;21593;-85
2022/10/24 07:54:54;;;;;;;7.82;3.25;;;;;;;;;;2595641;53;21048;-86
2022/10/24 07:57:21;;;;;;;13.55;3.40;;;;;;;;;;2592989;53;21057;-87
2022/10/24 07:59:48;;;;;;;8.02;3.08;;;;;;;;;;2349187;57;21053;-87
2022/10/24 08:02:16;;;;;;;7.35;3.17;;;;;;;;;;2348425;57;21037;-85
2022/10/24 08:04:43;;;;;;;5.30;3.05;;;;;;;;;;2347844;57;21171;-86
2022/10/24 08:07:12;;;;;;;10.65;3.28;;;;;;;;;;2347634;57;21069;-87
2022/10/24 08:09:39;;;;;;;9.27;3.47;;;;;;;;;;2348311;57;21061;-85
2022/10/24 08:12:06;;;;;;;8.90;3.03;;;;;;;;;;2594839;53;21096;-86
2022/10/24 08:14:33;;;;;;;8.05;3.22;;;;;;;;;;2594496;53;21676;-85
2022/10/24 08:17:00;;;;;;;8.80;3.25;;;;;;;;;;2594512;53;21616;-85
2022/10/24 08:19:27;;;;;;;8.00;3.20;;;;;;;;;;2597097;52;21038;-85
2022/10/24 08:21:54;;;;;;;4.37;3.15;;;;;;;;;;2349817;57;21077;-85
2022/10/24 08:24:21;;;;;;;5.62;2.87;;;;;;;;;;2350012;57;21073;-86
2022/10/24 08:26:48;;;;;;;7.28;2.83;;;;;;;;;;2595548;53;21050;-85
2022/10/24 08:29:20;;;;;;;7.22;2.80;;;;;;;;;;2595953;53;21627;-86
2022/10/24 08:31:49;;;;;;;9.40;3.30;;;;;;;;;;2596373;53;21335;-87
2022/10/24 08:34:16;;;;;;;7.72;2.75;;;;;;;;;;2595670;53;21053;-86
2022/10/24 08:36:44;;;;;;;5.47;3.15;;;;;;;;;;2594843;53;21684;-86
2022/10/24 08:39:11;;;;;;;9.13;3.30;;;;;;;;;;2596408;53;21065;-87
2022/10/24 08:41:39;;;;;;;9.98;2.95;;;;;;;;;;2595906;53;21033;-86
2022/10/24 08:44:20;;;;;;;9.77;3.22;;;;;;;;;;2349346;57;21053;-85
2022/10/24 08:46:50;;;;;;;7.68;2.97;;;;;;;;;;2596474;53;21140;-87
2022/10/24 08:49:24;;;;;;;7.87;3.12;;;;;;;;;;2596113;53;21522;-86
2022/10/24 08:51:53;;;;;;;11.35;3.35;;;;;;;;;;2349668;57;21060;-86
2022/10/24 08:54:22;;;;;;;15.18;3.90;;;;;;;;;;2349807;57;21062;-85
2022/10/24 08:56:49;;;;;;;10.45;3.37;;;;;;;;;;2596064;53;21110;-86
2022/10/24 08:59:17;;;;;;;15.00;3.30;;;;;;;;;;2595027;52;21073;-86
2022/10/24 09:01:47;;;;;;;12.10;3.78;;;;;;;;;;2348805;57;21188;-85
2022/10/24 09:04:16;;;;;;;8.63;3.20;;;;;;;;;;2349804;57;21119;-86
2022/10/24 09:06:43;;;;;;;6.95;3.40;;;;;;;;;;2596244;53;21133;-87
2022/10/24 09:09:13;;;;;;;8.20;3.05;;;;;;;;;;2350049;57;21557;-86
2022/10/24 09:11:42;;;;;;;11.48;3.25;;;;;;;;;;2348463;57;21065;-86
2022/10/24 09:14:12;;;;;;;6.03;3.30;;;;;;;;;;2596455;53;21045;-85
2022/10/24 09:16:40;;;;;;;7.65;2.92;;;;;;;;;;2350820;57;21053;-85
2022/10/24 09:19:10;;;;;;;6.50;2.80;;;;;;;;;;2349344;57;21112;-79
2022/10/24 09:21:40;;;;;;;8.10;2.95;;;;;;;;;;2595986;53;21033;-84
2022/10/24 09:24:09;;;;;;;7.10;2.62;;;;;;;;;;2597323;53;21551;-84
2022/10/24 09:26:38;;;;;;;5.53;2.83;;;;;;;;;;2597015;53;21066;-85
2022/10/24 09:29:05;;;;;;;6.03;2.65;;;;;;;;;;2350367;57;21138;-85
2022/10/24 09:31:32;;;;;;;5.28;2.53;;;;;;;;;;2348448;57;21089;-85
2022/10/24 09:33:59;;;;;;;7.10;2.30;;;;;;;;;;2598063;53;21038;-85
2022/10/24 09:36:29;;;;;;;7.90;3.12;;;;;;;;;;2350862;57;21106;-84
2022/10/24 09:38:56;;;;;;;9.80;2.70;;;;;;;;;;2350749;57;21108;-85
2022/10/24 09:41:24;;;;;;;9.25;2.78;;;;;;;;;;2596063;52;21053;-85
2022/10/24 09:43:53;;;;;;;4.97;2.65;;;;;;;;;;2597456;53;21156;-85
2022/10/24 09:46:22;;;;;;;6.72;2.90;;;;;;;;;;2350189;57;21056;-84
2022/10/24 09:48:51;;;;;;;7.10;2.40;;;;;;;;;;2596485;53;21036;-85
2022/10/24 09:51:20;;;;;;;6.45;2.30;;;;;;;;;;2349597;57;21037;-85
2022/10/24 09:53:58;;;;;;;7.07;2.67;;;;;;;;;;2349593;57;21113;-84
2022/10/24 09:56:32;;;;;;;5.57;2.65;;;;;;;;;;2350068;57;21084;-84
2022/10/24 09:59:16;;;;;;;8.15;2.60;;;;;;;;;;2350028;57;21089;-85
2022/10/24 10:01:44;;;;;;;12.23;2.50;;;;;;;;;;2348779;57;21132;-85
2022/10/24 10:04:15;;;;;;;7.70;2.45;;;;;;;;;;2596651;52;21101;-85
2022/10/24 10:06:44;;;;;;;8.95;2.40;;;;;;;;;;2349804;57;21037;-84
2022/10/24 10:09:12;;;;;;;6.75;2.50;;;;;;;;;;2349191;57;21041;-85
2022/10/24 10:11:40;;;;;;;9.40;2.35;;;;;;;;;;2349386;57;21211;-85
2022/10/24 10:14:19;;;;;;;4.68;2.58;;;;;;;;;;2597209;53;21098;-85
2022/10/24 10:16:57;;;;;;;8.07;3.17;;;;;;;;;;2597102;53;21088;-85
2022/10/24 10:19:24;;;;;;;5.70;2.50;;;;;;;;;;2349113;57;21041;-84
2022/10/24 10:21:52;;;;;;;5.65;2.65;;;;;;;;;;2597110;53;21057;-85
2022/10/24 10:24:25;;;;;;;9.27;2.42;;;;;;;;;;2348631;57;21514;-84
2022/10/24 10:26:52;;;;;;;9.75;2.25;;;;;;;;;;2596963;53;21040;-84
2022/10/24 10:29:23;;;;;;;5.25;2.47;;;;;;;;;;2597253;53;21045;-84
2022/10/24 10:31:53;;;;;;;6.93;2.60;;;;;;;;;;2597077;53;21030;-84
2022/10/24 10:34:24;;;;;;;9.48;2.15;;;;;;;;;;2596829;53;21072;-84
2022/10/24 10:36:59;;;;;;;8.77;2.30;;;;;;;;;;2350080;57;21076;-84
2022/10/24 10:39:32;;;;;;;5.68;2.10;;;;;;;;;;2348420;57;21049;-84
2022/10/24 10:42:02;;;;;;;4.63;2.03;;;;;;;;;;2348570;57;21073;-83
2022/10/24 10:44:40;;;;;;;5.53;1.95;;;;;;;;;;2349325;57;21380;-84
2022/10/24 10:47:12;;;;;;;6.62;2.30;;;;;;;;;;2594871;53;21076;-84
2022/10/24 10:49:39;;;;;;;8.55;2.37;;;;;;;;;;2348605;57;21053;-83
2022/10/24 10:52:09;;;;;;;6.95;2.17;;;;;;;;;;2348984;57;21029;-84
2022/10/24 10:54:49;;;;;;;5.20;2.53;;;;;;;;;;2349043;57;21128;-84
2022/10/24 10:57:16;;;;;;;13.30;2.53;;;;;;;;;;2347659;57;21045;-85
2022/10/24 10:59:48;;;;;;;6.72;1.80;;;;;;;;;;2349326;57;21068;-85
2022/10/24 11:02:23;;;;;;;5.97;2.10;;;;;;;;;;2595128;53;21561;-87
2022/10/24 11:04:54;;;;;;;8.73;1.85;;;;;;;;;;2349141;57;21080;-85
2022/10/24 11:07:27;;;;;;;5.28;1.55;;;;;;;;;;2595631;53;21526;-85
2022/10/24 11:09:56;;;;;;;4.80;1.48;;;;;;;;;;2349760;57;21072;-85
2022/10/24 11:12:25;;;;;;;8.48;2.05;;;;;;;;;;2596159;53;21049;-85
2022/10/24 11:15:00;;;;;;;6.40;1.65;;;;;;;;;;2347316;57;21069;-87
2022/10/24 11:17:29;;;;;;;5.32;1.33;;;;;;;;;;2345962;57;21041;-88
2022/10/24 11:20:05;;;;;;;6.35;1.58;;;;;;;;;;2595254;53;21049;-85
2022/10/24 11:22:36;;;;;;;7.25;1.40;;;;;;;;;;2595358;53;21186;-84
2022/10/24 11:25:06;;;;;;;4.95;1.27;;;;;;;;;;2347856;57;21092;-85
2022/10/24 11:27:37;;;;;;;10.52;1.52;;;;;;;;;;2348850;57;21033;-85
2022/10/24 11:30:06;;;;;;;7.47;1.75;;;;;;;;;;2347900;57;21061;-83
2022/10/24 11:32:34;;;;;;;3.58;1.37;;;;;;;;;;2595543;53;21084;-86
2022/10/24 11:35:06;;;;;;;5.37;1.90;;;;;;;;;;2348521;57;21041;-85
2022/10/24 11:37:34;;;;;;;4.00;1.45;;;;;;;;;;2347491;57;21029;-86
2022/10/24 11:40:04;;;;;;;10.25;1.58;;;;;;;;;;2595983;53;21030;-85
2022/10/24 11:42:36;;;;;;;8.63;1.67;;;;;;;;;;2346458;57;21124;-85
2022/10/24 11:45:05;;;;;;;4.53;1.40;;;;;;;;;;2347422;57;21124;-85
2022/10/24 11:47:43;;;;;;;3.58;1.17;;;;;;;;;;2595270;53;21037;-84
2022/10/24 11:50:13;;;;;;;2.97;1.40;;;;;;;;;;2348290;57;21077;-85
2022/10/24 11:52:42;;;;;;;2.58;1.35;;;;;;;;;;2594356;53;21526;-85
2022/10/24 11:55:13;;;;;;;4.32;1.50;;;;;;;;;;2348112;57;21072;-85
2022/10/24 11:57:43;;;;;;;4.78;1.30;;;;;;;;;;2347176;57;21045;-85
2022/10/24 12:03:07;;;;;;;3.30;1.50;;;;;;;;;;2352752;57;22117;-74
2022/10/24 12:05:36;;;;;;;;;;;;;;;;;;2348097;57;21115;-74
2022/10/24 12:08:16;;;;;;;3.67;1.30;;;;;;;;;;2349950;56;20328;-74
2022/10/24 12:11:05;;;;;;;5.87;1.62;;;;;;;;;;2625173;52;21102;-74
2022/10/24 12:13:43;;;;;;;6.60;1.45;;;;;;;;;;2369663;56;21038;-75
2022/10/24 12:16:16;;;;;;;4.15;1.27;;;;;;;;;;2371025;56;21056;-75
2022/10/24 12:18:45;;;;;;;3.62;1.23;;;;;;;;;;2372408;56;21061;-74
2022/10/24 12:21:13;;;;;;;4.03;1.00;;;;;;;;;;2372306;56;21210;-76
2022/10/24 12:23:41;;;;;;;8.95;1.40;;;;;;;;;;2370713;56;21189;-76
2022/10/24 12:26:17;;;;;;;4.80;1.23;;;;;;;;;;2373746;56;21565;-84
2022/10/24 12:28:53;;;;;;;9.05;1.62;;;;;;;;;;2630058;52;21051;-82
2022/10/24 12:31:21;;;;;;;10.00;1.40;;;;;;;;;;2374445;56;21027;-82
2022/10/24 12:34:30;;;;;;;4.78;1.45;;;;;;;;;;2629752;52;21110;-83
2022/10/24 12:37:10;;;;;;;4.62;1.30;;;;;;;;;;2630006;52;21091;-83
2022/10/24 12:39:38;;;;;;;5.62;1.37;;;;;;;;;;2627761;52;21111;-81
2022/10/24 12:42:12;;;;;;;4.78;1.20;;;;;;;;;;2375284;56;21683;-82
2022/10/24 12:44:43;;;;;;;5.35;1.42;;;;;;;;;;2628882;52;21066;-82
2022/10/24 12:47:28;;;;;;;3.33;1.10;;;;;;;;;;2630297;52;21051;-83
2022/10/24 12:49:55;;;;;;;2.37;1.23;;;;;;;;;;2376230;56;21047;-81
2022/10/24 12:52:48;;;;;;;6.55;1.67;;;;;;;;;;2374386;56;21047;-82
2022/10/24 12:55:29;;;;;;;3.17;1.20;;;;;;;;;;2560531;52;21174;-82
2022/10/24 12:57:56;;;;;;;3.90;1.55;;;;;;;;;;2629501;52;21553;-83
2022/10/24 13:00:25;;;;;;;2.65;1.08;;;;;;;;;;2627808;52;21019;-75
2022/10/24 13:03:03;;;;;;;1.70;0.88;;;;;;;;;;2370775;56;21471;-75
2022/10/24 13:05:48;;;;;;;2.03;1.08;;;;;;;;;;2371440;56;21497;-75
2022/10/24 13:08:21;;;;;;;4.22;1.00;;;;;;;;;;2373106;56;21106;-74
2022/10/24 13:10:53;;;;;;;3.87;1.08;;;;;;;;;;2372291;56;21023;-74
2022/10/24 13:13:43;;;;;;;6.95;1.12;;;;;;;;;;2372455;56;21546;-74
2022/10/24 13:16:16;;;;;;;3.83;0.90;;;;;;;;;;2539946;52;21039;-74
2022/10/24 13:18:47;;;;;;;3.78;1.10;;;;;;;;;;2625028;52;21613;-74
2022/10/24 13:21:17;;;;;;;5.55;1.00;;;;;;;;;;2624011;52;21023;-75
2022/10/24 13:23:44;;;;;;;6.57;1.50;;;;;;;;;;2370736;56;21050;-74
2022/10/24 13:26:27;;;;;;;3.87;1.67;;;;;;;;;;2373341;56;21030;-75
2022/10/24 13:28:54;;;;;;;3.80;1.20;;;;;;;;;;2372778;56;21809;-75
2022/10/24 13:31:41;;;;;;;9.95;1.58;;;;;;;;;;2372903;56;21114;-75
2022/10/24 13:34:14;;;;;;;4.62;1.20;;;;;;;;;;2372917;56;21055;-75
2022/10/24 13:36:42;;;;;;;8.85;1.35;;;;;;;;;;2627166;52;21031;-75
2022/10/24 13:39:11;;;;;;;1.85;1.10;;;;;;;;;;2369160;56;21110;-74
2022/10/24 13:41:40;;;;;;;4.80;1.33;;;;;;;;;;2370941;56;22187;-75
2022/10/24 13:44:10;;;;;;;3.25;0.88;;;;;;;;;;2373403;56;21117;-75
2022/10/24 13:46:38;;;;;;;4.45;1.37;;;;;;;;;;2374251;56;21103;-75
2022/10/24 13:49:06;;;;;;;7.22;2.10;;;;;;;;;;2373977;56;21043;-75
2022/10/24 13:51:36;;;;;;;6.50;1.62;;;;;;;;;;2626359;52;21549;-75
2022/10/24 13:54:08;;;;;;;6.20;1.45;;;;;;;;;;2373994;56;21621;-74
2022/10/24 13:56:37;;;;;;;4.75;1.20;;;;;;;;;;2374016;56;21589;-75
2022/10/24 13:59:06;;;;;;;9.65;1.55;;;;;;;;;;2372941;56;21039;-75
2022/10/24 14:01:36;;;;;;;3.40;1.20;;;;;;;;;;2372366;56;21114;-74
2022/10/24 14:04:04;;;;;;;11.23;2.28;;;;;;;;;;2625700;52;21023;-75
2022/10/24 14:06:32;;;;;;;3.90;1.45;;;;;;;;;;2372068;56;21094;-74
2022/10/24 14:09:01;;;;;;;6.00;1.50;;;;;;;;;;2372090;56;21055;-74
2022/10/24 14:11:29;;;;;;;4.78;2.03;;;;;;;;;;2372104;56;21035;-75
2022/10/24 14:13:57;;;;;;;7.43;1.48;;;;;;;;;;2372728;56;21533;-75
2022/10/24 14:16:25;;;;;;;7.43;1.37;;;;;;;;;;2623961;52;21054;-75
2022/10/24 14:18:52;;;;;;;6.00;1.17;;;;;;;;;;2626389;52;21553;-74
2022/10/24 14:21:21;;;;;;;5.53;1.17;;;;;;;;;;2372105;56;21127;-74
2022/10/24 14:23:56;;;;;;;4.72;1.20;;;;;;;;;;2371849;56;21554;-75
2022/10/24 14:26:23;;;;;;;5.20;1.55;;;;;;;;;;2372349;56;21094;-75
2022/10/24 14:28:52;;;;;;;7.20;1.60;;;;;;;;;;2625804;52;21138;-75
2022/10/24 14:31:21;;;;;;;5.10;1.50;;;;;;;;;;2372256;56;21102;-75
2022/10/24 14:33:50;;;;;;;4.90;1.10;;;;;;;;;;2371984;56;21118;-75
2022/10/24 14:36:19;;;;;;;5.18;1.62;;;;;;;;;;2373529;56;21122;-74
2022/10/24 14:38:46;;;;;;;7.07;1.23;;;;;;;;;;2372252;56;21609;-75
2022/10/24 14:41:13;;;;;;;3.37;1.17;;;;;;;;;;2372648;56;21051;-75
2022/10/24 14:43:41;;;;;;;3.28;1.20;;;;;;;;;;2371603;56;21125;-76
2022/10/24 14:46:22;;;;;;;7.12;1.80;;;;;;;;;;2372683;56;21513;-75
2022/10/24 14:48:49;;;;;;;3.75;1.10;;;;;;;;;;2372297;56;21126;-82
2022/10/24 14:51:21;;;;;;;7.75;1.12;;;;;;;;;;2375025;56;21070;-83
2022/10/24 14:53:49;;;;;;;4.90;1.50;;;;;;;;;;2628903;52;21083;-82
2022/10/24 14:56:20;;;;;;;5.12;1.25;;;;;;;;;;2629222;52;21111;-81
2022/10/24 14:58:50;;;;;;;4.53;1.10;;;;;;;;;;2630511;52;21027;-80